Time;durP1;ratioP1;P1;durP2;ratioP2;P2;SDS_P1;SDS_P2;PMS_P1;PMS_P2;Temp;Humidity;BMP_temperature;BMP_pressure;BME280_temperature;BME280_humidity;BME280_pressure;Samples;Min_cycle;Max_cycle;Signal;HPM_P1;HPM_P2
2022/01/08 00:02:09;;;;;;;10.63;6.97;;;;;;;3.67;75.19;95245.97;4978445;28;20042;-81
2022/01/08 00:04:35;;;;;;;10.25;6.97;;;;;;;3.42;74.85;95199.03;4979367;28;20114;-81
2022/01/08 00:07:00;;;;;;;9.65;6.80;;;;;;;3.93;74.66;95261.25;4996864;28;20042;-81
2022/01/08 00:09:26;;;;;;;13.70;7.53;;;;;;;3.46;74.70;95187.03;5011670;28;20038;-81
2022/01/08 00:11:51;;;;;;;10.20;6.68;;;;;;;3.87;74.35;95249.84;4996770;28;20049;-81
2022/01/08 00:14:20;;;;;;;13.13;6.50;;;;;;;3.70;74.93;95240.28;4978358;28;20452;-80
2022/01/08 00:16:46;;;;;;;11.63;6.97;;;;;;;3.62;74.57;95209.94;5001769;28;20041;-80
2022/01/08 00:19:11;;;;;;;12.40;7.03;;;;;;;3.04;75.29;95162.78;5015577;28;20038;-80
2022/01/08 00:21:37;;;;;;;10.52;6.38;;;;;;;3.17;75.11;95164.38;5011200;28;20054;-81
2022/01/08 00:24:03;;;;;;;12.20;6.82;;;;;;;3.13;75.02;95168.47;5010966;28;20030;-80
2022/01/08 00:26:28;;;;;;;8.60;5.70;;;;;;;3.38;75.13;95196.03;4979129;28;20034;-81
2022/01/08 00:28:54;;;;;;;10.85;5.88;;;;;;;3.74;74.73;95251.91;5010872;28;20057;-80
2022/01/08 00:31:19;;;;;;;9.32;6.15;;;;;;;3.01;74.87;95148.28;4978682;28;20045;-81
2022/01/08 00:33:47;;;;;;;9.48;6.20;;;;;;;3.15;74.35;95166.41;4978217;28;20038;-80
2022/01/08 00:36:13;;;;;;;12.40;6.00;;;;;;;3.73;74.97;95252.94;4995352;28;20053;-81
2022/01/08 00:38:38;;;;;;;11.73;6.47;;;;;;;3.40;74.45;95169.59;4978134;28;20045;-80
2022/01/08 00:41:04;;;;;;;10.95;5.65;;;;;;;3.76;74.93;95239.34;5010038;28;20034;-80
2022/01/08 00:43:29;;;;;;;9.80;5.93;;;;;;;3.57;75.06;95222.97;4995884;28;20057;-80
2022/01/08 00:45:56;;;;;;;7.97;5.47;;;;;;;3.24;73.80;95136.22;5010525;28;20054;-80
2022/01/08 00:48:22;;;;;;;9.05;5.68;;;;;;;3.85;74.46;95235.38;4978344;28;20442;-80
2022/01/08 00:50:47;;;;;;;9.48;5.88;;;;;;;3.21;74.55;95134.84;4995641;28;20117;-80
2022/01/08 00:53:13;;;;;;;8.55;5.78;;;;;;;3.74;74.47;95225.66;4977261;28;20441;-80
2022/01/08 00:55:52;;;;;;;6.13;4.25;;;;;;;3.91;74.52;95258.06;3501614;28;10021453;-79
2022/01/08 00:58:18;;;;;;;9.02;5.65;;;;;;;3.37;74.62;95183.97;2201824;28;10001905;-79
2022/01/08 01:00:58;;;;;;;6.40;4.50;;;;;;;3.25;75.04;95180.53;798686;28;10002319;-79
2022/01/08 01:03:24;;;;;;;8.82;5.05;;;;;;;3.59;74.84;95199.91;4995285;28;20299;-80
2022/01/08 01:05:50;;;;;;;10.57;5.10;;;;;;;2.94;75.54;95163.31;4977547;28;20068;-80
2022/01/08 01:08:15;;;;;;;8.45;5.15;;;;;;;3.56;75.32;95208.25;4977979;28;20050;-80
2022/01/08 01:10:41;;;;;;;8.63;5.10;;;;;;;3.79;75.34;95244.16;4978602;28;20045;-80
2022/01/08 01:13:07;;;;;;;8.20;5.35;;;;;;;3.37;75.04;95170.06;4978685;28;20041;-80
2022/01/08 01:15:33;;;;;;;8.50;5.53;;;;;;;3.80;75.38;95236.06;5011294;28;20547;-80
2022/01/08 01:17:58;;;;;;;9.52;5.35;;;;;;;3.60;74.86;95177.91;4995400;28;20050;-81
2022/01/08 01:20:24;;;;;;;9.57;5.50;;;;;;;3.23;74.66;95127.56;4995677;28;20509;-80
2022/01/08 01:23:10;;;;;;;7.75;4.80;;;;;;;3.96;74.50;95226.69;5010751;28;20057;-80
2022/01/08 01:25:48;;;;;;;9.32;5.38;;;;;;;3.21;75.60;95136.66;5011035;28;20429;-80
2022/01/08 01:47:15;;;;;;;8.23;4.80;;;;;;;3.44;75.02;95132.19;4999461;28;20041;-80
2022/01/08 01:49:45;;;;;;;13.07;5.13;;;;;;;3.96;74.87;95202.28;4981772;28;20038;-81
2022/01/08 01:52:15;;;;;;;7.82;5.07;;;;;;;3.64;74.47;95131.06;4980917;28;20569;-81
2022/01/08 01:54:42;;;;;;;7.90;4.68;;;;;;;3.79;74.45;95168.88;4981526;28;20031;-80
2022/01/08 01:57:09;;;;;;;9.50;4.93;;;;;;;4.04;74.80;95207.16;4998742;28;20041;-80
2022/01/08 01:59:37;;;;;;;7.25;4.20;;;;;;;3.57;74.70;95122.50;4998765;28;20042;-80
2022/01/08 02:02:03;;;;;;;7.35;4.28;;;;;;;3.74;74.78;95136.47;4999093;28;20493;-80
2022/01/08 02:04:28;;;;;;;10.43;5.47;;;;;;;4.04;74.22;95194.84;4999403;28;20468;-80
2022/01/08 02:06:54;;;;;;;7.20;4.35;;;;;;;3.88;74.24;95146.50;4981632;28;20181;-80
2022/01/08 02:09:20;;;;;;;8.50;4.38;;;;;;;3.55;74.25;95093.91;4981575;28;20053;-80
2022/01/08 02:12:06;;;;;;;6.78;4.30;;;;;;;3.72;74.90;95143.81;4983835;28;20097;-80
2022/01/08 02:14:34;;;;;;;6.65;4.55;;;;;;;3.21;74.83;95098.16;5008314;28;20122;-80
2022/01/08 02:17:00;;;;;;;10.80;4.55;;;;;;;3.69;74.72;95158.16;4999275;28;20513;-81
2022/01/08 02:19:26;;;;;;;7.55;4.75;;;;;;;3.82;75.21;95180.72;4999107;28;20184;-80
2022/01/08 02:21:55;;;;;;;8.27;4.72;;;;;;;3.38;75.71;95145.44;4998466;28;20038;-80
2022/01/08 02:24:21;;;;;;;8.25;4.00;;;;;;;3.30;75.87;95116.94;4998909;28;20030;-80
2022/01/08 02:26:47;;;;;;;7.28;4.90;;;;;;;3.33;75.72;95113.88;4981118;28;20026;-80
2022/01/08 02:29:14;;;;;;;6.90;4.30;;;;;;;3.39;76.21;95120.81;4999831;28;20041;-80
2022/01/08 02:31:40;;;;;;;7.32;4.72;;;;;;;3.53;76.18;95150.22;4981690;28;20034;-82
2022/01/08 02:34:07;;;;;;;5.55;4.28;;;;;;;3.28;75.65;95114.56;4994758;28;20033;-82
2022/01/08 02:36:34;;;;;;;8.07;5.20;;;;;;;3.23;75.69;95084.81;4976670;28;20112;-82
2022/01/08 02:38:59;;;;;;;8.52;5.65;;;;;;;3.76;75.59;95140.47;4977739;28;20030;-81
2022/01/08 02:41:27;;;;;;;8.73;5.45;;;;;;;3.80;75.33;95140.81;4998815;28;20038;-81
2022/01/08 02:43:53;;;;;;;7.85;4.82;;;;;;;3.72;75.32;95134.13;4980849;28;20053;-81
2022/01/08 02:46:20;;;;;;;9.65;5.78;;;;;;;2.88;75.48;94995.78;5013261;28;20034;-82
2022/01/08 02:48:45;;;;;;;9.10;6.03;;;;;;;3.66;75.23;95116.66;4998936;28;20081;-82
2022/01/08 02:51:11;;;;;;;8.80;5.43;;;;;;;3.66;75.76;95118.50;4999121;28;20057;-82
2022/01/08 02:53:37;;;;;;;9.52;5.38;;;;;;;3.39;75.83;95095.41;4980035;28;20042;-81
2022/01/08 02:56:08;;;;;;;;;;;;;;;3.51;75.38;95071.00;3722029;28;10020990;-81
2022/01/08 02:58:34;;;;;;;7.97;4.78;;;;;;;3.10;75.40;95010.69;1729100;28;10001829;-81
2022/01/08 03:00:59;;;;;;;8.55;5.45;;;;;;;3.56;76.57;95119.09;5018324;28;20029;-81
2022/01/08 03:03:25;;;;;;;10.68;5.80;;;;;;;3.42;75.61;95066.13;5033201;28;20048;-81
2022/01/08 03:05:50;;;;;;;10.57;5.32;;;;;;;3.54;76.88;95128.22;5018182;28;20041;-82
2022/01/08 03:08:16;;;;;;;9.07;5.35;;;;;;;3.35;76.92;95075.13;5000601;28;20049;-82
2022/01/08 03:10:42;;;;;;;8.82;5.30;;;;;;;3.32;76.29;95054.63;5000773;28;20033;-81
2022/01/08 03:13:07;;;;;;;9.27;5.20;;;;;;;3.06;76.15;95024.44;5018864;28;20477;-81
2022/01/08 03:15:35;;;;;;;10.23;5.20;;;;;;;3.87;75.45;95104.75;5018458;28;20119;-81
2022/01/08 03:18:04;;;;;;;7.57;5.22;;;;;;;2.93;76.07;95007.16;5018868;28;20034;-81
2022/01/08 03:20:30;;;;;;;8.65;5.25;;;;;;;3.46;76.10;95066.44;5018383;28;20036;-82
2022/01/08 03:23:02;;;;;;;8.02;5.57;;;;;;;3.64;75.50;95061.03;5018353;28;20030;-83
2022/01/08 03:25:28;;;;;;;9.25;5.07;;;;;;;3.57;75.48;95083.97;5019417;28;20041;-81
2022/01/08 03:27:54;;;;;;;6.78;4.53;;;;;;;3.14;76.06;95039.81;5017315;28;20054;-82
2022/01/08 03:30:20;;;;;;;8.93;4.97;;;;;;;3.72;76.10;95118.38;5029764;28;20038;-81
2022/01/08 03:32:45;;;;;;;8.15;5.00;;;;;;;3.53;75.91;95092.53;5030340;28;20030;-82
2022/01/08 03:35:11;;;;;;;8.07;5.03;;;;;;;3.60;75.89;95101.84;5015659;28;20603;-82
2022/01/08 03:37:37;;;;;;;8.10;4.90;;;;;;;3.55;75.98;95096.53;5015447;28;20113;-82
2022/01/08 03:40:04;;;;;;;8.88;5.20;;;;;;;3.72;76.24;95121.00;5015134;28;20535;-81
2022/01/08 03:42:30;;;;;;;6.15;4.32;;;;;;;3.46;75.67;95067.22;4999129;28;20475;-81
2022/01/08 03:44:55;;;;;;;9.32;5.57;;;;;;;3.45;75.67;95055.16;5031509;28;20046;-82
2022/01/08 03:49:52;;;;;;;8.38;5.18;;;;;;;3.79;75.83;95092.00;5016464;28;20045;-81
2022/01/08 03:52:18;;;;;;;8.18;4.88;;;;;;;3.78;76.12;95099.09;5022943;28;20053;-81
2022/01/08 03:54:44;;;;;;;7.80;5.22;;;;;;;3.20;75.52;94988.34;5019471;28;20125;-81
2022/01/08 03:57:09;;;;;;;8.85;4.78;;;;;;;3.84;75.68;95090.28;4999391;28;20034;-81
2022/01/08 03:59:35;;;;;;;8.27;5.15;;;;;;;3.94;76.01;95099.38;5016129;28;20045;-82
2022/01/08 04:02:01;;;;;;;7.90;4.93;;;;;;;3.30;76.46;95019.97;5017671;28;20493;-81
2022/01/08 04:04:26;;;;;;;7.57;4.38;;;;;;;3.52;76.78;95060.25;4999788;28;20041;-82
2022/01/08 04:06:52;;;;;;;7.03;4.65;;;;;;;3.85;75.98;95063.00;4999355;28;20041;-81
2022/01/08 04:09:18;;;;;;;8.43;5.30;;;;;;;3.45;75.60;95005.34;5017008;28;20038;-81
2022/01/08 04:11:44;;;;;;;7.97;5.00;;;;;;;3.18;75.96;94985.94;4999182;28;20064;-81
2022/01/08 04:14:10;;;;;;;10.02;5.00;;;;;;;3.56;76.45;95043.06;5032113;28;20083;-81
2022/01/08 04:16:40;;;;;;;8.60;5.25;;;;;;;3.78;76.49;95075.47;4998972;28;20057;-82
2022/01/08 04:19:05;;;;;;;7.18;4.63;;;;;;;3.33;77.14;95024.75;4999558;28;20029;-82
2022/01/08 04:21:59;;;;;;;10.70;5.03;;;;;;;3.32;76.69;95028.41;5016157;28;20033;-81
2022/01/08 04:24:16;;;;;;;6.93;4.07;;;;;;;3.33;76.36;95009.03;5015802;28;20084;-82
2022/01/08 04:26:42;;;;;;;8.65;4.18;;;;;;;3.26;76.77;95011.78;5016786;28;20044;-82
2022/01/08 04:29:07;;;;;;;7.55;4.38;;;;;;;3.41;76.90;95053.22;5017261;28;20155;-81
2022/01/08 04:31:33;;;;;;;7.00;4.30;;;;;;;3.43;76.92;95051.19;5016371;28;20037;-82
2022/01/08 04:33:58;;;;;;;7.38;4.20;;;;;;;3.69;76.79;95076.06;5016264;28;20037;-82
2022/01/08 04:36:24;;;;;;;6.72;4.22;;;;;;;3.67;76.75;95086.78;5031674;28;20053;-82
2022/01/08 04:38:49;;;;;;;6.22;4.32;;;;;;;3.67;76.84;95081.53;5016361;28;20036;-81
2022/01/08 04:41:15;;;;;;;8.73;4.47;;;;;;;3.59;77.37;95076.66;5032056;28;20068;-81
2022/01/08 04:43:43;;;;;;;7.28;3.67;;;;;;;3.16;77.11;95001.09;4997912;28;20089;-82
2022/01/08 04:46:09;;;;;;;6.68;3.97;;;;;;;3.73;76.72;95085.09;5031593;28;20037;-81
2022/01/08 04:48:34;;;;;;;6.43;3.92;;;;;;;3.07;76.71;94984.13;5016630;28;20048;-81
2022/01/08 04:51:00;;;;;;;8.43;4.00;;;;;;;3.51;76.95;95060.50;5031351;28;20045;-81
2022/01/08 04:53:26;;;;;;;6.00;3.53;;;;;;;2.96;76.56;94950.91;5015490;28;20073;-81
2022/01/08 04:56:06;;;;;;;6.15;3.38;;;;;;;3.00;76.08;94933.69;3523690;28;10021435;-81
2022/01/08 04:58:32;;;;;;;6.53;3.83;;;;;;;3.63;76.02;95037.66;2241468;28;10001813;-81
2022/01/08 05:00:58;;;;;;;6.53;3.45;;;;;;;3.42;76.59;95013.69;4998241;28;20477;-81
2022/01/08 05:03:23;;;;;;;4.78;3.38;;;;;;;3.50;76.68;95038.75;5016684;28;20056;-81
2022/01/08 05:05:49;;;;;;;6.60;3.10;;;;;;;3.30;76.51;94996.38;5016635;28;20038;-81
2022/01/08 05:08:14;;;;;;;6.65;3.35;;;;;;;3.10;76.42;94968.75;5031494;28;20045;-82
2022/01/08 05:10:40;;;;;;;5.55;3.78;;;;;;;3.69;76.36;95055.09;5031614;28;20058;-82
2022/01/08 05:13:06;;;;;;;5.97;2.92;;;;;;;3.73;76.47;95053.59;5019803;28;20068;-82
2022/01/08 05:15:33;;;;;;;4.53;2.92;;;;;;;3.44;76.20;95018.66;5035456;28;20532;-81
2022/01/08 05:17:58;;;;;;;5.47;3.03;;;;;;;3.90;76.06;95078.03;5034859;28;20456;-81
2022/01/08 05:20:28;;;;;;;7.85;3.08;;;;;;;3.55;76.40;95035.41;5019612;28;20092;-81
2022/01/08 05:22:59;;;;;;;5.25;3.13;;;;;;;3.64;75.95;95045.31;5035262;28;20038;-82
2022/01/08 05:25:26;;;;;;;4.68;3.25;;;;;;;3.66;76.50;95050.31;5035161;28;20029;-82
2022/01/08 05:27:51;;;;;;;4.28;2.53;;;;;;;3.68;76.13;95041.19;5002606;28;20125;-81
2022/01/08 05:30:20;;;;;;;4.18;2.80;;;;;;;4.06;75.79;95074.66;5020151;28;20485;-81
2022/01/08 05:32:46;;;;;;;4.25;2.83;;;;;;;3.84;75.91;95048.31;5002395;28;20037;-82
2022/01/08 05:35:12;;;;;;;7.35;2.90;;;;;;;3.58;76.43;95033.13;5002304;28;20042;-82
2022/01/08 05:37:38;;;;;;;4.55;2.85;;;;;;;3.14;77.20;94979.56;5002108;28;20141;-82
2022/01/08 05:40:05;;;;;;;5.18;3.08;;;;;;;3.57;77.20;95033.34;5019883;28;20038;-81
2022/01/08 05:42:30;;;;;;;8.18;3.15;;;;;;;3.96;76.52;95066.63;5020415;28;20026;-82
2022/01/08 05:44:56;;;;;;;6.43;3.08;;;;;;;2.92;76.33;94911.28;5034866;28;20057;-81
2022/01/08 05:47:22;;;;;;;4.60;2.78;;;;;;;3.45;76.25;94996.69;5002995;28;20030;-82
2022/01/08 05:49:47;;;;;;;4.97;2.92;;;;;;;3.57;76.17;95004.50;5002354;28;20480;-82
2022/01/08 05:52:13;;;;;;;8.70;3.22;;;;;;;3.86;76.00;95048.06;5020214;28;20041;-82
2022/01/08 05:54:38;;;;;;;5.78;3.10;;;;;;;3.25;77.08;94989.22;5034715;28;20030;-81
2022/01/08 05:57:04;;;;;;;7.65;3.25;;;;;;;3.69;76.97;95053.25;5020976;28;20041;-82
2022/01/08 05:59:30;;;;;;;4.88;2.58;;;;;;;3.89;76.84;95065.97;5001605;28;20033;-81
2022/01/08 06:01:56;;;;;;;5.20;3.00;;;;;;;3.75;77.07;95075.13;5035035;28;20041;-81
2022/01/08 06:04:23;;;;;;;4.97;3.15;;;;;;;3.89;76.99;95066.75;5003386;28;20124;-81
2022/01/08 06:06:49;;;;;;;5.68;2.90;;;;;;;3.42;76.48;94989.28;5002872;28;20412;-82
2022/01/08 06:09:15;;;;;;;6.03;2.90;;;;;;;3.58;76.63;95004.28;5018801;28;20030;-82
2022/01/08 06:11:40;;;;;;;6.88;2.75;;;;;;;3.57;76.44;94992.19;5000818;28;20057;-82
2022/01/08 06:14:06;;;;;;;5.53;3.00;;;;;;;3.66;76.53;95013.59;4999661;28;20027;-80
2022/01/08 06:16:37;;;;;;;5.57;3.17;;;;;;;3.45;76.61;94975.69;5018452;28;20044;-81
2022/01/08 06:19:06;;;;;;;5.55;3.00;;;;;;;3.67;77.04;95026.47;5000195;28;20038;-81
2022/01/08 06:21:32;;;;;;;7.25;3.15;;;;;;;3.54;77.10;95015.47;5033312;28;20067;-81
2022/01/08 06:23:58;;;;;;;5.72;2.97;;;;;;;3.89;77.20;95063.34;5017026;28;20030;-80
2022/01/08 06:26:24;;;;;;;12.75;3.30;;;;;;;3.65;76.58;95002.31;4999997;28;20050;-81
2022/01/08 06:28:51;;;;;;;7.05;2.88;;;;;;;2.94;76.67;94916.28;5017520;28;20425;-81
2022/01/08 06:31:20;;;;;;;10.00;3.65;;;;;;;3.95;76.46;95044.06;5033018;28;20122;-81
2022/01/08 06:33:47;;;;;;;6.70;3.53;;;;;;;3.38;76.57;94967.97;5016613;28;20030;-80
2022/01/08 06:36:13;;;;;;;5.55;2.75;;;;;;;3.29;76.95;94948.41;5015556;28;20037;-81
2022/01/08 06:38:40;;;;;;;6.93;3.40;;;;;;;3.67;77.12;95008.09;5015854;28;20044;-81
2022/01/08 06:41:05;;;;;;;5.38;2.45;;;;;;;3.78;76.66;95036.13;4999125;28;20036;-81
2022/01/08 06:43:31;;;;;;;4.18;2.90;;;;;;;3.95;76.92;95057.16;5015872;28;20058;-81
2022/01/08 06:45:57;;;;;;;7.80;2.50;;;;;;;3.01;76.41;94902.03;4998508;28;20184;-82
2022/01/08 06:48:22;;;;;;;5.07;2.65;;;;;;;3.65;76.23;94981.34;4999368;28;20045;-82
2022/01/08 06:50:47;;;;;;;3.83;2.20;;;;;;;3.56;76.66;94985.38;4999777;28;20034;-81
2022/01/08 06:53:13;;;;;;;4.28;2.47;;;;;;;3.49;76.35;94954.03;5017500;28;20038;-81
2022/01/08 06:55:38;;;;;;;4.90;2.45;;;;;;;4.05;76.32;95048.66;4919632;28;20655;-81
2022/01/08 06:58:04;;;;;;;4.45;2.97;;;;;;;3.73;75.92;94980.97;343627;28;10023907;-81
2022/01/08 07:00:29;;;;;;;5.75;2.50;;;;;;;4.00;75.51;95012.63;5017782;28;20034;-81
2022/01/08 07:02:55;;;;;;;3.30;2.20;;;;;;;3.77;75.81;94976.81;5017528;28;20421;-81
2022/01/08 07:05:20;;;;;;;3.80;2.83;;;;;;;3.99;75.18;94984.81;5017768;28;20030;-81
2022/01/08 07:07:46;;;;;;;6.80;2.85;;;;;;;4.04;75.72;95000.66;5017310;28;20041;-81
2022/01/08 07:10:11;;;;;;;5.28;2.85;;;;;;;3.96;76.03;95008.13;5032830;28;20048;-81
2022/01/08 07:12:37;;;;;;;5.78;2.95;;;;;;;3.01;76.58;94877.66;5017306;28;20041;-82
2022/01/08 07:15:04;;;;;;;7.18;2.80;;;;;;;3.68;76.80;94980.84;4999640;28;20069;-82
2022/01/08 07:17:29;;;;;;;6.60;2.88;;;;;;;4.02;76.37;95028.16;5017215;28;20534;-81
2022/01/08 07:19:55;;;;;;;6.97;3.88;;;;;;;3.80;76.10;94979.00;5017838;28;20033;-81
2022/01/08 07:22:20;;;;;;;8.23;3.85;;;;;;;3.16;76.07;94861.41;5032337;28;20046;-81
2022/01/08 07:24:46;;;;;;;10.93;6.05;;;;;;;4.10;75.54;95017.28;5017646;28;20033;-81
2022/01/08 07:27:11;;;;;;;10.02;4.68;;;;;;;4.38;75.42;95053.19;4999302;28;20524;-81
2022/01/08 07:29:37;;;;;;;6.40;3.45;;;;;;;4.10;75.93;95039.06;5000255;28;20060;-82
2022/01/08 07:32:03;;;;;;;5.95;3.30;;;;;;;3.97;75.63;94993.97;4999946;28;20049;-83
2022/01/08 07:34:28;;;;;;;11.18;4.18;;;;;;;3.57;75.50;94931.09;4998996;28;20034;-82
2022/01/08 07:36:54;;;;;;;5.22;3.08;;;;;;;3.62;75.51;94929.34;4999730;28;20053;-82
2022/01/08 07:39:19;;;;;;;6.13;3.20;;;;;;;4.10;75.86;95004.94;5016992;28;20373;-82
2022/01/08 07:41:45;;;;;;;5.32;3.03;;;;;;;4.43;75.16;95040.91;5017975;28;20116;-81
2022/01/08 07:44:10;;;;;;;7.10;2.90;;;;;;;3.76;75.39;94962.13;5016955;28;20054;-81
2022/01/08 07:46:36;;;;;;;7.47;3.00;;;;;;;3.99;75.04;94971.69;5016658;28;20417;-81
2022/01/08 07:49:01;;;;;;;5.93;2.75;;;;;;;4.32;75.56;95039.16;5017840;28;20034;-82
2022/01/08 07:51:26;;;;;;;4.70;2.90;;;;;;;4.27;74.95;95010.22;4999207;28;20075;-81
2022/01/08 07:53:52;;;;;;;7.05;2.78;;;;;;;4.06;75.06;94961.84;5018138;28;20045;-81
2022/01/08 07:56:17;;;;;;;5.90;2.53;;;;;;;4.11;75.12;94982.94;4999699;28;20033;-82
2022/01/08 07:58:43;;;;;;;7.70;2.80;;;;;;;4.11;74.82;94967.19;5032614;28;20045;-82
2022/01/08 08:01:08;;;;;;;8.23;2.90;;;;;;;4.61;74.75;95026.75;5000329;28;20045;-81
2022/01/08 08:03:34;;;;;;;10.63;3.70;;;;;;;4.66;74.86;95030.25;5017786;28;20038;-81
2022/01/08 08:05:59;;;;;;;8.18;3.60;;;;;;;4.69;74.38;95015.06;4999160;28;20088;-81
2022/01/08 08:08:25;;;;;;;9.82;3.40;;;;;;;4.57;74.80;95005.44;5031387;28;20571;-80
2022/01/08 08:10:51;;;;;;;6.00;2.60;;;;;;;4.11;74.60;94932.28;5017521;28;20045;-81
2022/01/08 08:13:18;;;;;;;4.75;2.67;;;;;;;3.95;74.01;94907.63;5017566;28;20041;-81
2022/01/08 08:15:44;;;;;;;9.27;3.25;;;;;;;4.20;73.84;94931.59;4999896;28;20026;-81
2022/01/08 08:18:11;;;;;;;8.60;3.47;;;;;;;5.01;73.68;95039.69;5032214;28;20041;-81
2022/01/08 08:20:36;;;;;;;11.98;3.10;;;;;;;4.84;74.08;95023.97;5017371;28;20418;-81
2022/01/08 08:23:02;;;;;;;4.38;2.58;;;;;;;4.77;73.70;95012.81;4999826;28;20057;-81
2022/01/08 08:25:27;;;;;;;4.88;2.72;;;;;;;4.99;73.94;95029.44;4999860;28;20033;-81
2022/01/08 08:27:52;;;;;;;5.68;2.78;;;;;;;4.94;73.10;95016.22;5032378;28;20042;-80
2022/01/08 08:30:18;;;;;;;8.90;3.55;;;;;;;4.67;73.88;94970.63;5017930;28;20101;-81
2022/01/08 08:32:44;;;;;;;8.30;3.25;;;;;;;4.77;73.04;94978.66;5017544;28;20485;-80
2022/01/08 08:35:10;;;;;;;12.68;4.30;;;;;;;5.07;73.61;95016.91;5017394;28;20050;-81
2022/01/08 08:37:37;;;;;;;6.15;2.95;;;;;;;4.80;73.25;94965.06;5032225;28;20148;-82
2022/01/08 08:40:07;;;;;;;6.57;2.83;;;;;;;5.09;73.39;95015.63;4998842;28;20026;-81
2022/01/08 08:42:33;;;;;;;9.27;3.10;;;;;;;4.74;73.67;94955.50;5032358;28;20034;-80
2022/01/08 08:44:58;;;;;;;8.15;3.92;;;;;;;4.75;73.81;94957.09;5000398;28;20050;-81
2022/01/08 08:47:24;;;;;;;8.95;3.72;;;;;;;4.62;73.16;94936.44;5017230;28;20121;-81
2022/01/08 08:49:49;;;;;;;6.55;2.95;;;;;;;5.13;72.93;94997.53;5016986;28;20045;-81
2022/01/08 08:52:15;;;;;;;8.20;2.92;;;;;;;5.40;73.04;95022.88;5032291;28;20125;-82
2022/01/08 08:54:42;;;;;;;7.45;3.45;;;;;;;5.60;72.39;95022.31;5017158;28;20037;-81
2022/01/08 08:57:20;;;;;;;12.65;2.50;;;;;;;5.38;72.35;94988.13;1698111;28;10022868;-80
2022/01/08 08:59:45;;;;;;;6.45;2.95;;;;;;;4.81;72.79;94905.41;3961198;28;10001212;-81
2022/01/08 09:02:11;;;;;;;12.07;3.13;;;;;;;5.28;72.12;94966.97;5009799;28;20030;-80
2022/01/08 09:04:37;;;;;;;8.05;3.03;;;;;;;5.19;72.68;94965.03;4994918;28;20026;-81
2022/01/08 09:07:04;;;;;;;8.90;4.07;;;;;;;5.11;73.10;94942.56;4995135;28;20057;-81
2022/01/08 09:09:30;;;;;;;8.60;3.50;;;;;;;5.54;72.41;94994.34;4995537;28;20184;-81
2022/01/08 09:11:55;;;;;;;6.63;4.13;;;;;;;4.91;72.64;94901.06;4994608;28;20042;-81
2022/01/08 09:14:21;;;;;;;8.27;3.20;;;;;;;4.85;73.33;94907.31;5009844;28;20034;-81
2022/01/08 09:16:57;;;;;;;7.88;4.50;;;;;;;4.93;73.10;94917.41;4977929;28;20046;-82
2022/01/08 09:19:23;;;;;;;7.68;5.30;;;;;;;5.14;73.65;94970.22;5011497;28;20053;-81
2022/01/08 09:21:50;;;;;;;9.15;5.03;;;;;;;5.30;72.66;94959.63;4995596;28;20042;-81
2022/01/08 09:24:18;;;;;;;8.75;4.97;;;;;;;5.02;72.16;94913.31;5009750;28;20121;-81
2022/01/08 09:26:44;;;;;;;9.13;4.43;;;;;;;5.14;72.23;94909.75;5011323;28;20045;-81
2022/01/08 09:29:10;;;;;;;8.48;4.10;;;;;;;5.43;72.64;94956.63;4995749;28;20085;-81
2022/01/08 09:31:37;;;;;;;10.98;5.47;;;;;;;5.50;72.36;94955.63;4979011;28;20068;-80
2022/01/08 09:34:02;;;;;;;10.48;4.68;;;;;;;5.60;72.76;94967.06;4979511;28;20042;-80
2022/01/08 09:36:28;;;;;;;5.45;3.38;;;;;;;5.34;72.40;94931.03;4996938;28;20031;-81
2022/01/08 09:38:54;;;;;;;6.65;3.65;;;;;;;5.33;72.53;94909.19;4978733;28;20052;-80
2022/01/08 09:41:19;;;;;;;8.93;4.07;;;;;;;5.27;71.32;94864.66;4997083;28;20038;-81
2022/01/08 09:43:45;;;;;;;9.57;3.92;;;;;;;5.91;71.95;94955.03;4978053;28;20055;-81
2022/01/08 09:46:10;;;;;;;5.70;3.03;;;;;;;5.76;71.56;94960.91;4978795;28;20108;-81
2022/01/08 09:48:36;;;;;;;7.68;3.50;;;;;;;5.42;71.31;94889.28;4996275;28;20477;-80
2022/01/08 09:51:01;;;;;;;5.30;3.45;;;;;;;4.72;71.65;94778.97;4979203;28;20050;-81
2022/01/08 09:53:27;;;;;;;6.72;3.45;;;;;;;5.20;71.08;94843.03;4997145;28;20042;-80
2022/01/08 09:55:53;;;;;;;11.52;3.45;;;;;;;5.05;71.67;94851.56;4997324;28;20050;-81
2022/01/08 09:58:19;;;;;;;7.63;3.38;;;;;;;5.11;71.52;94826.91;4998314;28;20106;-81
2022/01/08 10:00:46;;;;;;;4.07;2.63;;;;;;;5.41;72.28;94900.88;5000271;28;20138;-81
2022/01/08 10:03:23;;;;;;;6.90;4.65;;;;;;;5.79;71.15;94928.06;4982363;28;20042;-81
2022/01/08 10:05:54;;;;;;;8.25;3.72;;;;;;;5.86;71.47;94933.91;4982278;28;20061;-80
2022/01/08 10:08:24;;;;;;;9.80;3.40;;;;;;;5.94;70.91;94930.06;4999518;28;20038;-80
2022/01/08 10:10:58;;;;;;;4.57;3.15;;;;;;;5.57;70.88;94891.25;4981912;28;20068;-81
2022/01/08 10:13:31;;;;;;;9.40;3.78;;;;;;;5.64;70.91;94872.66;4980510;28;20493;-81
2022/01/08 10:18:43;;;;;;;7.60;2.85;;;;;;;5.73;71.96;94923.78;4997850;28;20096;-80
2022/01/08 10:21:23;;;;;;;5.20;2.83;;;;;;;5.43;71.54;94845.38;4997934;28;20037;-81
2022/01/08 10:24:04;;;;;;;4.57;2.50;;;;;;;4.87;71.46;94757.31;4980061;28;20031;-81
2022/01/08 10:26:34;;;;;;;6.27;2.63;;;;;;;5.41;70.83;94858.00;4998183;28;20476;-81
2022/01/08 10:29:05;;;;;;;6.57;3.33;;;;;;;5.43;70.81;94827.75;4980597;28;20054;-81
2022/01/08 10:31:33;;;;;;;6.97;2.70;;;;;;;5.54;70.84;94847.06;4997459;28;20042;-81
2022/01/08 10:34:01;;;;;;;4.18;2.72;;;;;;;6.00;70.68;94895.63;4996686;28;20374;-81
2022/01/08 10:36:29;;;;;;;10.35;3.38;;;;;;;5.87;70.78;94896.03;4996636;28;20038;-81
2022/01/08 10:38:57;;;;;;;5.15;3.30;;;;;;;5.67;70.51;94861.63;4998408;28;20108;-81
2022/01/08 10:41:25;;;;;;;8.63;3.53;;;;;;;5.78;70.81;94874.63;4997878;28;20105;-81
2022/01/08 10:44:17;;;;;;;5.53;3.38;;;;;;;5.92;70.93;94887.41;4997007;28;20113;-80
2022/01/08 10:47:05;;;;;;;;;;;;;;;5.82;71.26;94880.19;4997762;28;20229;-81
2022/01/08 10:49:40;;;;;;;7.75;4.50;;;;;;;5.94;70.30;94861.63;4980110;28;20325;-81
2022/01/08 10:52:12;;;;;;;6.15;3.40;;;;;;;5.73;70.26;94835.09;5012473;28;20038;-80
2022/01/08 10:54:42;;;;;;;7.78;3.85;;;;;;;5.75;70.43;94829.59;4979361;28;20046;-82
2022/01/08 10:57:36;;;;;;;4.97;3.38;;;;;;;5.99;69.99;94832.69;1221692;28;10022618;-80
2022/01/08 11:00:07;;;;;;;5.65;3.20;;;;;;;5.86;70.56;94828.66;4636073;28;10001213;-80
2022/01/08 11:02:34;;;;;;;6.18;4.07;;;;;;;5.51;69.54;94752.06;4978833;28;20045;-81
2022/01/08 11:05:07;;;;;;;7.07;4.15;;;;;;;5.96;70.18;94838.47;4979098;28;20026;-80
2022/01/08 11:07:33;;;;;;;8.18;4.10;;;;;;;6.10;70.34;94843.03;5011563;28;20034;-80
2022/01/08 11:10:06;;;;;;;9.02;3.55;;;;;;;5.68;70.56;94790.34;4996354;28;20161;-80
2022/01/08 11:12:40;;;;;;;11.15;4.00;;;;;;;5.89;70.35;94837.88;4995375;28;20063;-82
2022/01/08 11:17:47;;;;;;;6.18;3.30;;;;;;;5.51;70.04;94747.59;4997861;28;20042;-81
2022/01/08 11:20:24;;;;;;;7.20;3.53;;;;;;;6.00;70.25;94803.50;4996657;28;20030;-81
2022/01/08 11:23:02;;;;;;;11.20;4.30;;;;;;;6.26;69.72;94848.41;5012243;28;20516;-81
2022/01/08 11:25:32;;;;;;;8.63;4.57;;;;;;;5.85;69.89;94777.06;4997580;28;20034;-81
2022/01/08 11:28:11;;;;;;;12.43;4.85;;;;;;;6.18;69.83;94805.69;4998130;28;20058;-81
2022/01/08 11:30:50;;;;;;;10.85;5.68;;;;;;;6.42;69.17;94844.81;4983003;28;20030;-81
2022/01/08 11:33:31;;;;;;;8.48;4.45;;;;;;;6.32;69.87;94837.66;5005163;28;20034;-80
2022/01/08 11:35:57;;;;;;;7.80;3.58;;;;;;;6.36;68.98;94832.66;4996345;28;20026;-81
2022/01/08 11:38:26;;;;;;;9.85;4.00;;;;;;;6.14;69.79;94812.53;4995570;28;20034;-82
2022/01/08 11:40:54;;;;;;;10.23;4.72;;;;;;;6.07;69.27;94788.28;4995270;28;20129;-81
2022/01/08 11:43:25;;;;;;;7.50;4.53;;;;;;;6.11;68.95;94805.13;4978804;28;20080;-81
2022/01/08 11:46:07;;;;;;;5.55;3.53;;;;;;;6.12;69.60;94827.00;4995817;28;20053;-81
2022/01/08 11:48:37;;;;;;;5.45;3.42;;;;;;;5.67;69.23;94703.78;4978392;28;20030;-81
2022/01/08 11:51:05;;;;;;;6.75;3.83;;;;;;;6.41;69.86;94828.22;4978337;28;20034;-81
2022/01/08 11:53:33;;;;;;;5.88;3.95;;;;;;;6.52;68.95;94821.97;4996285;28;20042;-81
2022/01/08 11:56:05;;;;;;;8.82;4.72;;;;;;;5.95;69.97;94745.53;4978416;28;20556;-81
2022/01/08 11:58:36;;;;;;;9.38;4.72;;;;;;;6.14;70.11;94774.88;4993838;28;20046;-81
2022/01/08 12:01:09;;;;;;;8.27;4.40;;;;;;;6.43;69.38;94801.63;5009393;28;20038;-81
2022/01/08 12:03:49;;;;;;;10.30;5.38;;;;;;;6.34;69.57;94811.06;4993638;28;20105;-81
2022/01/08 12:06:21;;;;;;;6.03;3.92;;;;;;;6.33;69.68;94814.75;4976962;28;20030;-81
2022/01/08 12:12:04;;;;;;;8.23;3.80;;;;;;;6.53;69.67;94810.38;4993111;28;20093;-81